sensor_id;sensor_type;location;lat;lon;timestamp;P1;durP1;ratioP1;P2;durP2;ratioP2
45232;SDS011;30969;51.052;17.056;2022-08-03T00:00:57;6.70;;;4.35;;
45232;SDS011;30969;51.052;17.056;2022-08-03T00:06:02;6.40;;;4.25;;
45232;SDS011;30969;51.052;17.056;2022-08-03T00:11:08;4.30;;;3.10;;
45232;SDS011;30969;51.052;17.056;2022-08-03T00:16:15;6.80;;;3.90;;
45232;SDS011;30969;51.052;17.056;2022-08-03T00:21:19;8.98;;;3.95;;
45232;SDS011;30969;51.052;17.056;2022-08-03T00:26:23;5.22;;;3.88;;
45232;SDS011;30969;51.052;17.056;2022-08-03T00:31:27;4.93;;;4.18;;
45232;SDS011;30969;51.052;17.056;2022-08-03T00:36:51;7.15;;;3.42;;
45232;SDS011;30969;51.052;17.056;2022-08-03T00:41:55;8.20;;;4.18;;
45232;SDS011;30969;51.052;17.056;2022-08-03T00:46:58;6.63;;;4.35;;
45232;SDS011;30969;51.052;17.056;2022-08-03T00:52:03;7.13;;;4.30;;
45232;SDS011;30969;51.052;17.056;2022-08-03T00:57:10;5.75;;;3.92;;
45232;SDS011;30969;51.052;17.056;2022-08-03T01:02:13;5.90;;;4.13;;
45232;SDS011;30969;51.052;17.056;2022-08-03T01:07:20;6.82;;;4.45;;
45232;SDS011;30969;51.052;17.056;2022-08-03T01:12:34;5.05;;;3.80;;
45232;SDS011;30969;51.052;17.056;2022-08-03T01:17:47;5.97;;;4.20;;
45232;SDS011;30969;51.052;17.056;2022-08-03T01:23:02;9.70;;;4.47;;
45232;SDS011;30969;51.052;17.056;2022-08-03T01:28:35;7.10;;;4.35;;
45232;SDS011;30969;51.052;17.056;2022-08-03T01:33:48;6.22;;;4.55;;
45232;SDS011;30969;51.052;17.056;2022-08-03T01:38:59;7.53;;;4.30;;
45232;SDS011;30969;51.052;17.056;2022-08-03T01:44:05;6.40;;;4.40;;
45232;SDS011;30969;51.052;17.056;2022-08-03T01:49:32;8.75;;;5.07;;
45232;SDS011;30969;51.052;17.056;2022-08-03T01:54:41;7.35;;;4.57;;
45232;SDS011;30969;51.052;17.056;2022-08-03T01:59:47;7.13;;;4.80;;
45232;SDS011;30969;51.052;17.056;2022-08-03T02:04:54;7.22;;;5.10;;
45232;SDS011;30969;51.052;17.056;2022-08-03T02:09:59;9.63;;;5.35;;
45232;SDS011;30969;51.052;17.056;2022-08-03T02:15:05;6.32;;;4.90;;
45232;SDS011;30969;51.052;17.056;2022-08-03T02:20:12;6.60;;;4.68;;
45232;SDS011;30969;51.052;17.056;2022-08-03T02:25:17;8.35;;;4.80;;
45232;SDS011;30969;51.052;17.056;2022-08-03T02:30:20;7.85;;;4.93;;
45232;SDS011;30969;51.052;17.056;2022-08-03T02:35:29;7.00;;;4.95;;
45232;SDS011;30969;51.052;17.056;2022-08-03T02:40:36;8.77;;;5.32;;
45232;SDS011;30969;51.052;17.056;2022-08-03T02:45:43;8.35;;;4.97;;
45232;SDS011;30969;51.052;17.056;2022-08-03T02:50:51;7.40;;;5.63;;
45232;SDS011;30969;51.052;17.056;2022-08-03T02:56:00;7.10;;;5.65;;
45232;SDS011;30969;51.052;17.056;2022-08-03T03:01:09;6.93;;;5.22;;
45232;SDS011;30969;51.052;17.056;2022-08-03T03:06:15;9.43;;;5.32;;
45232;SDS011;30969;51.052;17.056;2022-08-03T03:11:20;7.25;;;5.05;;
45232;SDS011;30969;51.052;17.056;2022-08-03T03:16:25;10.25;;;5.13;;
45232;SDS011;30969;51.052;17.056;2022-08-03T03:21:31;9.60;;;5.28;;
45232;SDS011;30969;51.052;17.056;2022-08-03T03:26:35;8.52;;;4.90;;
45232;SDS011;30969;51.052;17.056;2022-08-03T03:31:43;7.30;;;4.80;;
45232;SDS011;30969;51.052;17.056;2022-08-03T03:36:49;8.32;;;5.03;;
45232;SDS011;30969;51.052;17.056;2022-08-03T03:41:53;6.50;;;5.15;;
45232;SDS011;30969;51.052;17.056;2022-08-03T03:46:57;11.77;;;7.47;;
45232;SDS011;30969;51.052;17.056;2022-08-03T03:52:02;11.20;;;6.32;;
45232;SDS011;30969;51.052;17.056;2022-08-03T03:57:06;10.20;;;6.43;;
45232;SDS011;30969;51.052;17.056;2022-08-03T04:02:14;8.93;;;5.32;;
45232;SDS011;30969;51.052;17.056;2022-08-03T04:07:19;8.05;;;5.13;;
45232;SDS011;30969;51.052;17.056;2022-08-03T04:12:42;8.15;;;5.32;;
45232;SDS011;30969;51.052;17.056;2022-08-03T04:17:51;7.28;;;5.13;;
45232;SDS011;30969;51.052;17.056;2022-08-03T04:23:00;10.63;;;5.13;;
45232;SDS011;30969;51.052;17.056;2022-08-03T04:28:15;7.90;;;5.28;;
45232;SDS011;30969;51.052;17.056;2022-08-03T04:33:32;7.80;;;5.13;;
45232;SDS011;30969;51.052;17.056;2022-08-03T04:38:43;6.45;;;4.95;;
45232;SDS011;30969;51.052;17.056;2022-08-03T04:43:55;8.38;;;5.55;;
45232;SDS011;30969;51.052;17.056;2022-08-03T04:49:00;8.55;;;5.82;;
45232;SDS011;30969;51.052;17.056;2022-08-03T04:54:05;11.45;;;5.82;;
45232;SDS011;30969;51.052;17.056;2022-08-03T04:59:09;6.20;;;5.45;;
45232;SDS011;30969;51.052;17.056;2022-08-03T05:04:12;7.25;;;5.93;;
45232;SDS011;30969;51.052;17.056;2022-08-03T05:09:17;11.02;;;7.68;;
45232;SDS011;30969;51.052;17.056;2022-08-03T05:14:41;8.18;;;5.70;;
45232;SDS011;30969;51.052;17.056;2022-08-03T05:19:44;9.38;;;5.82;;
45232;SDS011;30969;51.052;17.056;2022-08-03T05:24:49;9.18;;;5.93;;
45232;SDS011;30969;51.052;17.056;2022-08-03T05:29:53;13.57;;;5.38;;
45232;SDS011;30969;51.052;17.056;2022-08-03T05:35:16;10.27;;;5.65;;
45232;SDS011;30969;51.052;17.056;2022-08-03T05:40:41;9.80;;;5.05;;
45232;SDS011;30969;51.052;17.056;2022-08-03T05:45:58;12.45;;;5.43;;
45232;SDS011;30969;51.052;17.056;2022-08-03T05:51:13;8.68;;;4.70;;
45232;SDS011;30969;51.052;17.056;2022-08-03T05:56:20;8.00;;;5.05;;
45232;SDS011;30969;51.052;17.056;2022-08-03T06:01:24;5.20;;;4.60;;
45232;SDS011;30969;51.052;17.056;2022-08-03T06:06:28;16.15;;;5.00;;
45232;SDS011;30969;51.052;17.056;2022-08-03T06:11:34;7.38;;;4.28;;
45232;SDS011;30969;51.052;17.056;2022-08-03T06:16:38;9.45;;;3.90;;
45232;SDS011;30969;51.052;17.056;2022-08-03T06:21:41;6.13;;;3.83;;
45232;SDS011;30969;51.052;17.056;2022-08-03T06:26:47;6.72;;;4.30;;
45232;SDS011;30969;51.052;17.056;2022-08-03T06:31:50;6.13;;;3.85;;
45232;SDS011;30969;51.052;17.056;2022-08-03T06:36:55;7.88;;;3.85;;
45232;SDS011;30969;51.052;17.056;2022-08-03T06:42:04;6.30;;;3.78;;
45232;SDS011;30969;51.052;17.056;2022-08-03T06:47:10;6.88;;;3.67;;
45232;SDS011;30969;51.052;17.056;2022-08-03T06:52:13;6.30;;;3.80;;
45232;SDS011;30969;51.052;17.056;2022-08-03T06:57:39;4.47;;;4.03;;
45232;SDS011;30969;51.052;17.056;2022-08-03T07:02:42;5.18;;;3.58;;
45232;SDS011;30969;51.052;17.056;2022-08-03T07:07:47;4.20;;;3.10;;
45232;SDS011;30969;51.052;17.056;2022-08-03T07:12:52;4.72;;;2.78;;
45232;SDS011;30969;51.052;17.056;2022-08-03T07:17:57;5.85;;;3.38;;
45232;SDS011;30969;51.052;17.056;2022-08-03T07:23:00;3.30;;;3.00;;
45232;SDS011;30969;51.052;17.056;2022-08-03T07:28:05;5.78;;;3.67;;
45232;SDS011;30969;51.052;17.056;2022-08-03T07:33:09;3.95;;;3.20;;
45232;SDS011;30969;51.052;17.056;2022-08-03T07:38:12;6.80;;;3.25;;
45232;SDS011;30969;51.052;17.056;2022-08-03T07:43:18;5.07;;;2.70;;
45232;SDS011;30969;51.052;17.056;2022-08-03T07:48:22;3.17;;;2.88;;
45232;SDS011;30969;51.052;17.056;2022-08-03T07:53:25;3.30;;;2.58;;
45232;SDS011;30969;51.052;17.056;2022-08-03T07:58:31;2.95;;;2.45;;
45232;SDS011;30969;51.052;17.056;2022-08-03T08:03:36;3.85;;;2.70;;
45232;SDS011;30969;51.052;17.056;2022-08-03T08:08:54;3.85;;;2.85;;
45232;SDS011;30969;51.052;17.056;2022-08-03T08:14:01;4.20;;;2.75;;
45232;SDS011;30969;51.052;17.056;2022-08-03T08:19:06;3.72;;;3.17;;
45232;SDS011;30969;51.052;17.056;2022-08-03T08:24:11;3.92;;;2.72;;
45232;SDS011;30969;51.052;17.056;2022-08-03T08:29:21;4.15;;;2.95;;
45232;SDS011;30969;51.052;17.056;2022-08-03T08:34:25;4.45;;;2.88;;
45232;SDS011;30969;51.052;17.056;2022-08-03T08:39:28;5.03;;;3.10;;
45232;SDS011;30969;51.052;17.056;2022-08-03T08:44:33;4.55;;;2.60;;
45232;SDS011;30969;51.052;17.056;2022-08-03T08:49:37;8.02;;;2.50;;
45232;SDS011;30969;51.052;17.056;2022-08-03T08:55:03;3.90;;;2.42;;
45232;SDS011;30969;51.052;17.056;2022-08-03T09:00:10;2.70;;;2.30;;
45232;SDS011;30969;51.052;17.056;2022-08-03T09:05:16;2.50;;;2.30;;
45232;SDS011;30969;51.052;17.056;2022-08-03T09:10:40;3.55;;;2.47;;
45232;SDS011;30969;51.052;17.056;2022-08-03T09:15:45;7.20;;;2.50;;
45232;SDS011;30969;51.052;17.056;2022-08-03T09:21:11;3.50;;;2.20;;
45232;SDS011;30969;51.052;17.056;2022-08-03T09:26:33;5.40;;;2.50;;
45232;SDS011;30969;51.052;17.056;2022-08-03T09:31:39;3.65;;;2.40;;
45232;SDS011;30969;51.052;17.056;2022-08-03T09:36:45;3.80;;;2.25;;
45232;SDS011;30969;51.052;17.056;2022-08-03T09:42:02;2.92;;;1.98;;
45232;SDS011;30969;51.052;17.056;2022-08-03T09:47:09;4.63;;;2.10;;
45232;SDS011;30969;51.052;17.056;2022-08-03T09:52:15;4.80;;;2.10;;
45232;SDS011;30969;51.052;17.056;2022-08-03T09:57:39;2.67;;;2.20;;
